Time;durP1;ratioP1;P1;durP2;ratioP2;P2;SDS_P1;SDS_P2;PMS_P1;PMS_P2;Temp;Humidity;BMP_temperature;BMP_pressure;BME280_temperature;BME280_humidity;BME280_pressure;Samples;Min_cycle;Max_cycle;Signal;HPM_P1;HPM_P2
2023/06/15 00:00:30;;;;;;;;;;;;;;;16.29;45.66;100629.97;5054652;28;1902;-55
2023/06/15 00:02:56;;;;;;;;;;;;;;;16.22;45.75;100633.78;5057216;28;1219;-56
2023/06/15 00:05:21;;;;;;;;;;;;;;;16.17;45.67;100635.72;5056415;28;1083;-55
2023/06/15 00:07:47;;;;;;;;;;;;;;;16.14;45.31;100628.03;5026817;28;990;-57
2023/06/15 00:10:13;;;;;;;;;;;;;;;16.47;46.09;100634.06;5041826;28;1140;-57
2023/06/15 00:12:38;;;;;;;;;;;;;;;16.66;46.94;100620.56;5056630;28;1103;-56
2023/06/15 00:15:04;;;;;;;;;;;;;;;16.33;46.97;100620.09;5056299;28;1116;-55
2023/06/15 00:17:30;;;;;;;;;;;;;;;16.33;46.24;100623.66;5045304;28;1092;-55
2023/06/15 00:20:00;;;;;;;;;;;;;;;16.23;45.91;100619.00;5053533;28;1987;-56
2023/06/15 00:22:26;;;;;;;;;;;;;;;16.87;46.50;100622.19;5056177;28;1107;-58
2023/06/15 00:24:52;;;;;;;;;;;;;;;16.84;47.11;100614.47;5056380;28;1009;-58
2023/06/15 00:27:18;;;;;;;;;;;;;;;16.51;47.28;100618.66;5056308;28;2032;-57
2023/06/15 00:29:44;;;;;;;;;;;;;;;16.43;46.50;100622.81;5056671;28;1171;-57
2023/06/15 00:32:09;;;;;;;;;;;;;;;16.38;46.39;100617.31;5038029;28;1625;-56
2023/06/15 00:34:35;;;;;;;;;;;;;;;16.40;45.61;100618.69;5055209;28;1175;-56
2023/06/15 00:37:00;;;;;;;;;;;;;;;16.18;45.80;100618.97;5038169;28;1147;-55
2023/06/15 00:39:26;;;;;;;;;;;;;;;16.18;45.60;100615.44;5056173;28;1994;-55
2023/06/15 00:41:51;;;;;;;;;;;;;;;16.11;45.50;100617.63;5038273;28;1207;-55
2023/06/15 00:44:17;;;;;;;;;;;;;;;16.14;45.29;100617.88;5042095;28;882;-56
2023/06/15 00:46:42;;;;;;;;;;;;;;;16.16;45.14;100612.13;5037943;28;1120;-56
2023/06/15 00:49:08;;;;;;;;;;;;;;;17.19;46.29;100607.25;5024339;28;1302;-55
2023/06/15 00:51:34;;;;;;;;;;;;;;;16.81;47.56;100603.25;5056152;28;1071;-56
2023/06/15 00:53:59;;;;;;;;;;;;;;;16.47;47.29;100606.63;5055953;28;1023;-55
2023/06/15 00:56:29;;;;;;;;;;;;;;;16.39;46.98;100602.50;5027891;28;857;-56
2023/06/15 00:58:57;;;;;;;;;;;;;;;16.34;46.38;100606.09;5035076;28;1902;-57
2023/06/15 01:01:25;;;;;;;;;;;;;;;16.26;46.01;100606.66;5027688;28;1126;-55
2023/06/15 01:03:51;;;;;;;;;;;;;;;16.21;45.76;100614.88;5056550;28;1119;-54
2023/06/15 01:06:19;;;;;;;;;;;;;;;16.19;45.76;100600.63;5044348;28;1462;-53
2023/06/15 01:08:47;;;;;;;;;;;;;;;16.50;46.06;100611.56;5031305;28;1263;-54
2023/06/15 01:11:13;;;;;;;;;;;;;;;16.70;47.19;100605.19;5062328;28;1088;-53
2023/06/15 01:13:38;;;;;;;;;;;;;;;16.48;47.08;100613.75;5062394;28;1158;-57
2023/06/15 01:16:06;;;;;;;;;;;;;;;17.67;47.31;100612.22;5044579;28;1135;-57
2023/06/15 01:18:33;;;;;;;;;;;;;;;16.87;48.21;100607.63;5061588;28;1897;-54
2023/06/15 01:21:01;;;;;;;;;;;;;;;16.63;47.58;100608.22;5050109;28;1254;-57
2023/06/15 01:23:49;;;;;;;;;;;;;;;16.56;46.93;100616.78;5061616;28;1060;-55
2023/06/15 01:26:16;;;;;;;;;;;;;;;16.42;46.58;100605.53;5045353;28;1206;-55
2023/06/15 01:28:45;;;;;;;;;;;;;;;16.43;46.05;100603.59;5044842;28;1072;-56
2023/06/15 01:31:10;;;;;;;;;;;;;;;16.33;45.53;100601.69;5059322;28;1068;-56
2023/06/15 01:33:46;;;;;;;;;;;;;;;16.30;45.58;100602.25;5034183;28;1120;-56
2023/06/15 01:36:11;;;;;;;;;;;;;;;16.27;45.57;100591.00;5062243;28;1043;-56
2023/06/15 01:38:37;;;;;;;;;;;;;;;16.18;45.50;100598.97;5061648;28;1975;-58
2023/06/15 01:41:02;;;;;;;;;;;;;;;16.20;45.13;100596.75;5058133;28;1091;-58
2023/06/15 01:43:28;;;;;;;;;;;;;;;16.44;45.68;100591.53;5034799;28;1096;-58
2023/06/15 01:45:54;;;;;;;;;;;;;;;16.68;47.22;100594.50;5024630;28;1225;-58
2023/06/15 01:48:20;;;;;;;;;;;;;;;16.37;47.10;100594.56;5034676;28;1174;-57
2023/06/15 01:50:45;;;;;;;;;;;;;;;16.45;46.28;100595.09;5027405;28;1053;-57
2023/06/15 01:53:11;;;;;;;;;;;;;;;16.33;46.11;100587.16;5024572;28;1160;-58
2023/06/15 01:55:36;;;;;;;;;;;;;;;17.08;47.01;100592.75;5037354;28;1352;-58
2023/06/15 01:58:02;;;;;;;;;;;;;;;16.56;47.53;100588.47;5052266;28;1068;-57
2023/06/15 02:00:27;;;;;;;;;;;;;;;16.44;46.70;100591.53;5043933;28;1987;-58
2023/06/15 02:02:53;;;;;;;;;;;;;;;16.38;46.31;100584.38;5061789;28;1188;-57
2023/06/15 02:05:18;;;;;;;;;;;;;;;16.35;46.15;100591.25;5061588;28;1063;-57
2023/06/15 02:07:47;;;;;;;;;;;;;;;16.24;45.80;100595.09;5043530;28;1160;-58
2023/06/15 02:10:12;;;;;;;;;;;;;;;16.11;45.68;100590.19;5030733;28;1091;-57
2023/06/15 02:12:38;;;;;;;;;;;;;;;16.22;45.35;100595.38;5061915;28;1051;-58
2023/06/15 02:15:12;;;;;;;;;;;;;;;17.36;46.50;100592.31;5023108;28;1346;-55
2023/06/15 02:17:39;;;;;;;;;;;;;;;16.58;47.53;100586.28;5050170;28;1068;-55
2023/06/15 02:20:08;;;;;;;;;;;;;;;16.39;47.17;100606.06;5053232;28;1977;-56
2023/06/15 02:22:33;;;;;;;;;;;;;;;16.35;46.51;100609.66;5050371;28;1132;-55
2023/06/15 02:24:59;;;;;;;;;;;;;;;16.27;46.13;100610.19;5058418;28;1164;-56
2023/06/15 02:27:24;;;;;;;;;;;;;;;16.38;46.42;100620.91;5058794;28;1079;-55
2023/06/15 02:29:50;;;;;;;;;;;;;;;17.01;47.46;100607.88;5058468;28;1158;-55
2023/06/15 02:32:34;;;;;;;;;;;;;;;16.55;47.50;100622.50;5058124;28;1159;-55
2023/06/15 02:35:05;;;;;;;;;;;;;;;16.49;46.70;100615.41;5028663;28;1328;-55
2023/06/15 02:37:30;;;;;;;;;;;;;;;16.86;46.85;100616.97;5039071;28;1152;-55
2023/06/15 02:39:56;;;;;;;;;;;;;;;16.99;47.81;100618.34;5038284;28;1910;-56
2023/06/15 02:42:21;;;;;;;;;;;;;;;16.66;47.34;100624.16;5022411;28;1136;-55
2023/06/15 02:44:47;;;;;;;;;;;;;;;16.48;47.14;100614.59;5050283;28;814;-55
2023/06/15 02:47:13;;;;;;;;;;;;;;;16.48;46.35;100614.59;5034775;28;1441;-55
2023/06/15 02:49:39;;;;;;;;;;;;;;;16.36;46.04;100617.59;5040151;28;1321;-55
2023/06/15 02:52:05;;;;;;;;;;;;;;;16.36;45.54;100609.38;5058215;28;1075;-55
2023/06/15 02:54:31;;;;;;;;;;;;;;;16.23;45.67;100608.00;5057667;28;1135;-55
2023/06/15 02:56:57;;;;;;;;;;;;;;;16.34;45.29;100611.59;5026664;28;1103;-55
2023/06/15 02:59:26;;;;;;;;;;;;;;;16.22;45.44;100611.03;5039534;28;1910;-55
2023/06/15 03:01:57;;;;;;;;;;;;;;;16.32;45.86;100602.78;5039739;28;1290;-55
2023/06/15 03:04:24;;;;;;;;;;;;;;;16.82;47.10;100615.88;5040183;28;1226;-56
2023/06/15 03:06:57;;;;;;;;;;;;;;;16.36;46.95;100612.13;5040028;28;1342;-56
2023/06/15 03:09:35;;;;;;;;;;;;;;;16.35;46.59;100615.94;5039559;28;1093;-55
2023/06/15 03:12:00;;;;;;;;;;;;;;;16.22;46.44;100611.03;5039919;28;1567;-55
2023/06/15 03:14:31;;;;;;;;;;;;;;;16.22;45.91;100611.84;5039853;28;1151;-57
2023/06/15 03:16:57;;;;;;;;;;;;;;;16.17;45.83;100616.50;5057881;28;1080;-57
2023/06/15 03:19:22;;;;;;;;;;;;;;;16.12;45.40;100616.50;5039464;28;1985;-57
2023/06/15 03:21:49;;;;;;;;;;;;;;;16.11;45.54;100614.88;5025976;28;1208;-58
2023/06/15 03:24:17;;;;;;;;;;;;;;;16.03;45.43;100621.72;5039394;28;1367;-50
2023/06/15 03:26:47;;;;;;;;;;;;;;;16.04;45.16;100626.94;5023430;28;1358;-57
2023/06/15 03:29:14;;;;;;;;;;;;;;;15.96;45.07;100627.47;5039704;28;1334;-57
2023/06/15 03:31:43;;;;;;;;;;;;;;;15.96;44.98;100630.22;5057550;28;1187;-57
2023/06/15 03:34:09;;;;;;;;;;;;;;;16.21;45.60;100629.41;5039611;28;1182;-58
2023/06/15 03:36:35;;;;;;;;;;;;;;;16.54;46.85;100627.19;5057488;28;1128;-58
2023/06/15 03:39:06;;;;;;;;;;;;;;;16.21;46.72;100632.13;5039261;28;1906;-57
2023/06/15 03:41:34;;;;;;;;;;;;;;;16.20;46.31;100636.00;5039587;28;1184;-52
2023/06/15 03:44:01;;;;;;;;;;;;;;;16.14;45.90;100636.28;5029249;28;1230;-55
2023/06/15 03:46:27;;;;;;;;;;;;;;;16.07;45.82;100637.38;5039364;28;1384;-51
2023/06/15 03:48:52;;;;;;;;;;;;;;;16.04;45.50;100643.38;5039264;28;1238;-54
2023/06/15 03:51:19;;;;;;;;;;;;;;;16.87;46.19;100643.31;5039124;28;1257;-55
2023/06/15 03:53:45;;;;;;;;;;;;;;;16.48;47.21;100632.97;5038529;28;1478;-64
2023/06/15 03:56:10;;;;;;;;;;;;;;;16.30;47.84;100629.69;5056761;28;1033;-56
2023/06/15 03:58:36;;;;;;;;;;;;;;;16.20;47.14;100632.41;5056767;28;1977;-60
2023/06/15 04:01:04;;;;;;;;;;;;;;;17.14;47.33;100642.16;5049367;28;1715;-59
2023/06/15 04:03:34;;;;;;;;;;;;;;;16.55;48.13;100641.72;5031830;28;1227;-60
2023/06/15 04:06:01;;;;;;;;;;;;;;;16.43;47.13;100645.59;5015625;28;1156;-53
2023/06/15 04:08:27;;;;;;;;;;;;;;;16.26;46.76;100645.06;5038221;28;1306;-49
2023/06/15 04:10:52;;;;;;;;;;;;;;;16.22;46.59;100649.44;5052425;28;1568;-55
2023/06/15 04:13:18;;;;;;;;;;;;;;;16.22;46.01;100652.19;5048433;28;1246;-54
2023/06/15 04:15:44;;;;;;;;;;;;;;;16.18;45.69;100649.16;5018911;28;1282;-50
2023/06/15 04:18:09;;;;;;;;;;;;;;;17.10;47.02;100645.47;5034726;28;1298;-54
2023/06/15 04:20:36;;;;;;;;;;;;;;;16.58;47.60;100646.69;5023155;28;1910;-55
2023/06/15 04:23:02;;;;;;;;;;;;;;;16.45;46.98;100653.53;5018359;28;1200;-55
2023/06/15 04:25:27;;;;;;;;;;;;;;;16.32;46.64;100657.66;5035073;28;1319;-55
2023/06/15 04:27:53;;;;;;;;;;;;;;;16.19;46.19;100660.97;5053014;28;1362;-53
2023/06/15 04:30:24;;;;;;;;;;;;;;;16.14;46.22;100661.78;5032994;28;1544;-55
2023/06/15 04:32:57;;;;;;;;;;;;;;;16.18;45.48;100664.81;5049886;28;1484;-51
2023/06/15 04:35:24;;;;;;;;;;;;;;;16.69;47.00;100674.94;5051240;28;1512;-55
2023/06/15 04:37:53;;;;;;;;;;;;;;;16.47;46.73;100672.50;5033758;28;1487;-54
2023/06/15 04:40:20;;;;;;;;;;;;;;;16.28;46.58;100667.53;5034029;28;1976;-60
2023/06/15 04:42:46;;;;;;;;;;;;;;;16.94;47.45;100674.09;5037535;28;1139;-59
2023/06/15 04:45:12;;;;;;;;;;;;;;;16.55;47.46;100674.66;5034994;28;1110;-63
2023/06/15 04:47:38;;;;;;;;;;;;;;;16.36;46.98;100672.47;5055276;28;1008;-59
2023/06/15 04:50:05;;;;;;;;;;;;;;;16.43;46.25;100680.44;5038526;28;1132;-58
2023/06/15 04:52:31;;;;;;;;;;;;;;;16.32;45.89;100676.88;5037905;28;1156;-60
2023/06/15 04:54:56;;;;;;;;;;;;;;;16.27;45.96;100676.88;5037383;28;1268;-58
2023/06/15 04:57:22;;;;;;;;;;;;;;;17.48;44.73;100685.47;5037835;28;1373;-58
2023/06/15 04:59:47;;;;;;;;;;;;;;;17.07;45.99;100678.19;5037546;28;1981;-60
2023/06/15 05:02:13;;;;;;;;;;;;;;;16.89;46.85;100693.34;5055640;28;1139;-61
2023/06/15 05:04:39;;;;;;;;;;;;;;;16.75;47.76;100690.31;5034542;28;1159;-62
2023/06/15 05:07:05;;;;;;;;;;;;;;;16.57;48.37;100688.94;5038130;28;1182;-61
2023/06/15 05:09:35;;;;;;;;;;;;;;;16.56;48.77;100685.41;5034000;28;1350;-63
2023/06/15 05:12:06;;;;;;;;;;;;;;;16.47;48.86;100694.47;5034863;28;1667;-63
2023/06/15 05:14:32;;;;;;;;;;;;;;;16.36;49.45;100694.44;5026880;28;1339;-63
2023/06/15 05:17:03;;;;;;;;;;;;;;;16.33;49.84;100697.72;5029633;28;1503;-66
2023/06/15 05:19:32;;;;;;;;;;;;;;;16.29;49.80;100698.56;5034013;28;1981;-60
2023/06/15 05:22:00;;;;;;;;;;;;;;;16.21;50.03;100691.69;5036647;28;1414;-61
2023/06/15 05:24:26;;;;;;;;;;;;;;;16.17;50.44;100685.94;5034590;28;1599;-60
2023/06/15 05:26:51;;;;;;;;;;;;;;;16.19;50.53;100693.88;5054033;28;1452;-62
2023/06/15 05:29:17;;;;;;;;;;;;;;;16.07;50.90;100703.22;5036423;28;1020;-60
2023/06/15 05:31:43;;;;;;;;;;;;;;;16.08;50.76;100704.03;5051365;28;1204;-62
2023/06/15 05:34:09;;;;;;;;;;;;;;;16.05;51.22;100702.63;5051942;28;1099;-60
2023/06/15 05:36:35;;;;;;;;;;;;;;;16.01;51.15;100697.97;5033799;28;1556;-58
2023/06/15 05:39:02;;;;;;;;;;;;;;;16.03;51.16;100706.75;5037070;28;1906;-60
2023/06/15 05:41:28;;;;;;;;;;;;;;;15.90;51.84;100708.09;5036994;28;1107;-60
2023/06/15 05:43:53;;;;;;;;;;;;;;;15.89;51.60;100700.97;5035129;28;1140;-57
2023/06/15 05:46:19;;;;;;;;;;;;;;;15.84;51.80;100709.19;5022281;28;1385;-59
2023/06/15 05:48:45;;;;;;;;;;;;;;;15.86;51.84;100701.50;5036745;28;1733;-62
2023/06/15 05:51:10;;;;;;;;;;;;;;;15.83;51.95;100707.53;5039626;28;1196;-61
2023/06/15 05:53:36;;;;;;;;;;;;;;;15.79;52.18;100704.50;5057559;28;1780;-61
2023/06/15 05:56:03;;;;;;;;;;;;;;;15.75;52.38;100700.63;5047746;28;1084;-59
2023/06/15 05:58:29;;;;;;;;;;;;;;;15.78;52.45;100704.75;5042845;28;1465;-57
2023/06/15 06:00:55;;;;;;;;;;;;;;;15.77;52.28;100701.19;5040814;28;1979;-56
2023/06/15 06:03:21;;;;;;;;;;;;;;;16.30;51.38;100698.28;5039685;28;1460;-57
2023/06/15 06:05:48;;;;;;;;;;;;;;;17.19;51.04;100700.66;5040498;28;1487;-48
2023/06/15 06:08:14;;;;;;;;;;;;;;;16.64;54.14;100705.97;5040407;28;1266;-53
2023/06/15 06:10:40;;;;;;;;;;;;;;;16.52;56.22;100705.41;5039654;28;1222;-53
2023/06/15 06:13:20;;;;;;;;;;;;;;;16.45;56.73;100696.63;5040471;28;1382;-59
2023/06/15 06:15:46;;;;;;;;;;;;;;;16.26;56.41;100697.19;5057793;28;1073;-51
2023/06/15 06:18:13;;;;;;;;;;;;;;;16.21;56.08;100697.19;5032352;28;1192;-57
2023/06/15 06:20:39;;;;;;;;;;;;;;;16.13;55.81;100703.19;5036639;28;2012;-56
2023/06/15 06:23:04;;;;;;;;;;;;;;;16.06;55.82;100703.44;5058034;28;1191;-56
2023/06/15 06:25:30;;;;;;;;;;;;;;;16.07;55.57;100708.69;5047950;28;1204;-59
2023/06/15 06:27:56;;;;;;;;;;;;;;;16.01;55.34;100701.53;5037081;28;1223;-56
2023/06/15 06:30:21;;;;;;;;;;;;;;;16.01;55.17;100698.78;5034628;28;1224;-60
2023/06/15 06:32:47;;;;;;;;;;;;;;;15.90;55.46;100699.88;5050412;28;1037;-58
2023/06/15 06:35:12;;;;;;;;;;;;;;;15.92;55.34;100700.41;5052790;28;1104;-55
2023/06/15 06:37:38;;;;;;;;;;;;;;;15.86;55.25;100690.53;5049365;28;1016;-57
2023/06/15 06:40:03;;;;;;;;;;;;;;;15.90;55.07;100699.88;5056092;28;1978;-58
2023/06/15 06:42:29;;;;;;;;;;;;;;;15.82;55.12;100711.34;5053948;28;1001;-56
2023/06/15 06:44:56;;;;;;;;;;;;;;;16.84;54.98;100698.81;5038475;28;1448;-54
2023/06/15 06:47:21;;;;;;;;;;;;;;;17.15;54.71;100704.25;5055239;28;1416;-54
2023/06/15 06:49:47;;;;;;;;;;;;;;;16.55;56.07;100697.47;5047079;28;1104;-56
2023/06/15 06:52:14;;;;;;;;;;;;;;;16.35;56.05;100702.94;5055985;28;1132;-54
2023/06/15 06:54:39;;;;;;;;;;;;;;;16.32;55.72;100704.31;5056271;28;1128;-53
2023/06/15 06:57:05;;;;;;;;;;;;;;;16.19;55.95;100699.38;5028627;28;1215;-54
2023/06/15 06:59:30;;;;;;;;;;;;;;;16.11;55.92;100708.16;5056962;28;1982;-53
2023/06/15 07:01:56;;;;;;;;;;;;;;;16.15;55.84;100709.25;5057033;28;924;-52
2023/06/15 07:04:21;;;;;;;;;;;;;;;16.06;55.81;100707.03;5057229;28;1096;-57
2023/06/15 07:06:47;;;;;;;;;;;;;;;16.04;55.74;100698.25;5048683;28;1250;-56
2023/06/15 07:09:12;;;;;;;;;;;;;;;16.04;55.65;100703.72;5031253;28;1363;-54
2023/06/15 07:11:38;;;;;;;;;;;;;;;15.95;55.79;100710.00;5054893;28;1197;-58
2023/06/15 07:14:03;;;;;;;;;;;;;;;15.90;55.68;100708.09;5056951;28;1116;-54
2023/06/15 07:16:30;;;;;;;;;;;;;;;16.73;55.30;100709.81;5057756;28;1159;-54
2023/06/15 07:18:56;;;;;;;;;;;;;;;17.26;54.97;100700.38;5054835;28;1909;-54
2023/06/15 07:21:21;;;;;;;;;;;;;;;16.68;56.07;100706.25;5051423;28;1436;-53
2023/06/15 07:23:47;;;;;;;;;;;;;;;16.47;56.41;100706.25;5047587;28;1165;-57
2023/06/15 07:26:13;;;;;;;;;;;;;;;16.32;56.26;100693.34;5057115;28;1067;-58
2023/06/15 07:28:39;;;;;;;;;;;;;;;16.27;56.13;100698.84;5056544;28;1513;-57
2023/06/15 07:31:05;;;;;;;;;;;;;;;16.19;56.21;100702.13;5056531;28;1100;-58
2023/06/15 07:33:30;;;;;;;;;;;;;;;16.17;55.96;100699.66;5038334;28;969;-57
2023/06/15 07:35:56;;;;;;;;;;;;;;;16.15;56.05;100698.28;5055560;28;1127;-55
2023/06/15 07:38:21;;;;;;;;;;;;;;;16.08;56.07;100698.53;5056196;28;1084;-55
2023/06/15 07:40:47;;;;;;;;;;;;;;;16.11;55.83;100695.25;5057281;28;1913;-59
2023/06/15 07:43:12;;;;;;;;;;;;;;;16.00;56.12;100710.84;5057032;28;979;-56
2023/06/15 07:45:38;;;;;;;;;;;;;;;16.01;55.61;100708.94;5056544;28;1171;-57
2023/06/15 07:48:04;;;;;;;;;;;;;;;15.99;55.50;100706.47;5056515;28;1103;-56
2023/06/15 07:50:30;;;;;;;;;;;;;;;15.92;55.88;100708.63;5055893;28;1100;-57
2023/06/15 07:52:55;;;;;;;;;;;;;;;15.94;55.80;100700.97;5058466;28;1124;-56
2023/06/15 07:55:21;;;;;;;;;;;;;;;15.86;55.78;100704.25;5055861;28;1072;-58
2023/06/15 07:57:46;;;;;;;;;;;;;;;15.83;55.89;100707.53;5055820;28;983;-59
2023/06/15 08:00:12;;;;;;;;;;;;;;;15.85;55.71;100711.66;5056353;28;1909;-55
2023/06/15 08:02:37;;;;;;;;;;;;;;;16.55;55.99;100713.09;5055520;28;1204;-59
2023/06/15 08:05:03;;;;;;;;;;;;;;;17.28;55.29;100703.69;5055944;28;1171;-56
2023/06/15 08:07:29;;;;;;;;;;;;;;;16.61;56.81;100706.53;5056523;28;1113;-53
2023/06/15 08:09:55;;;;;;;;;;;;;;;16.43;57.01;100711.44;5037876;28;1135;-57
2023/06/15 08:12:21;;;;;;;;;;;;;;;16.28;56.69;100702.41;5055901;28;1067;-58
2023/06/15 08:14:47;;;;;;;;;;;;;;;16.23;56.42;100708.72;5061373;28;1122;-63
2023/06/15 08:17:12;;;;;;;;;;;;;;;16.20;56.37;100706.50;5038961;28;1044;-56
2023/06/15 08:19:38;;;;;;;;;;;;;;;16.10;56.48;100712.78;5056111;28;1918;-53
2023/06/15 08:22:03;;;;;;;;;;;;;;;16.10;56.42;100711.97;5055841;28;1099;-55
2023/06/15 08:24:29;;;;;;;;;;;;;;;16.02;56.41;100711.41;5049651;28;1381;-55
2023/06/15 08:26:54;;;;;;;;;;;;;;;15.99;56.20;100706.47;5047739;28;1120;-61
2023/06/15 08:29:20;;;;;;;;;;;;;;;15.96;56.32;100715.22;5047533;28;1056;-59
2023/06/15 08:31:46;;;;;;;;;;;;;;;15.91;56.34;100717.97;5056381;28;1112;-60
2023/06/15 08:34:11;;;;;;;;;;;;;;;15.90;56.05;100708.91;5031685;28;1200;-58
2023/06/15 08:36:37;;;;;;;;;;;;;;;16.76;56.34;100709.25;5055675;28;1237;-58
2023/06/15 08:39:07;;;;;;;;;;;;;;;17.00;56.49;100703.22;5049461;28;1914;-57
2023/06/15 08:41:32;;;;;;;;;;;;;;;16.53;57.12;100707.06;5052424;28;1060;-57
2023/06/15 08:43:58;;;;;;;;;;;;;;;16.39;57.05;100701.31;5038273;28;1199;-57
2023/06/15 08:46:24;;;;;;;;;;;;;;;16.28;56.91;100694.97;5053821;28;1147;-57
2023/06/15 08:48:50;;;;;;;;;;;;;;;16.23;56.83;100700.47;5046770;28;1215;-57
2023/06/15 08:51:16;;;;;;;;;;;;;;;16.17;56.42;100696.06;5049100;28;1203;-57
2023/06/15 08:53:42;;;;;;;;;;;;;;;16.11;56.49;100708.16;5028256;28;1334;-57
2023/06/15 08:56:09;;;;;;;;;;;;;;;16.07;56.54;100703.22;5053689;28;1063;-57
2023/06/15 08:58:35;;;;;;;;;;;;;;;16.11;56.17;100708.16;5055189;28;1191;-59
2023/06/15 09:01:01;;;;;;;;;;;;;;;16.03;56.12;100698.50;5055255;28;1974;-59
2023/06/15 09:03:26;;;;;;;;;;;;;;;16.03;56.24;100707.59;5037996;28;1302;-58
2023/06/15 09:05:52;;;;;;;;;;;;;;;15.93;56.39;100706.75;5023004;28;1254;-58
2023/06/15 09:08:17;;;;;;;;;;;;;;;15.92;56.27;100705.88;5049023;28;1056;-58
2023/06/15 09:10:43;;;;;;;;;;;;;;;15.90;56.33;100708.09;5055836;28;1013;-58
2023/06/15 09:13:13;;;;;;;;;;;;;;;15.91;56.33;100712.50;5055979;28;1047;-59
2023/06/15 09:15:39;;;;;;;;;;;;;;;15.85;56.27;100708.06;5055796;28;1214;-57
2023/06/15 09:18:05;;;;;;;;;;;;;;;15.84;56.10;100699.03;5055918;28;1211;-58
2023/06/15 09:20:31;;;;;;;;;;;;;;;16.01;56.42;100704.28;5054959;28;1980;-60
2023/06/15 09:22:57;;;;;;;;;;;;;;;17.32;56.51;100704.75;5055306;28;1056;-61
2023/06/15 09:25:22;;;;;;;;;;;;;;;16.69;57.36;100707.88;5058009;28;1093;-66
2023/06/15 09:27:57;;;;;;;;;;;;;;;16.45;57.58;100702.13;5059733;28;1090;-62
2023/06/15 09:30:28;;;;;;;;;;;;;;;16.31;57.24;100693.63;5059709;28;1060;-68
2023/06/15 09:32:54;;;;;;;;;;;;;;;16.12;57.30;100682.34;5058800;28;1104;-70
2023/06/15 09:35:19;;;;;;;;;;;;;;;16.20;56.90;100706.50;5059323;28;881;-61
2023/06/15 09:37:45;;;;;;;;;;;;;;;16.11;56.97;100708.16;5059650;28;1071;-60
2023/06/15 09:40:12;;;;;;;;;;;;;;;16.10;56.84;100695.50;5041382;28;1902;-61
2023/06/15 09:42:38;;;;;;;;;;;;;;;16.01;56.91;100693.31;5055335;28;1006;-61
2023/06/15 09:45:05;;;;;;;;;;;;;;;16.06;56.33;100704.28;5059360;28;1106;-61
2023/06/15 09:47:31;;;;;;;;;;;;;;;16.06;56.45;100696.06;5040738;28;1314;-58
2023/06/15 09:49:56;;;;;;;;;;;;;;;16.01;56.26;100703.47;5059087;28;1144;-56
2023/06/15 09:52:22;;;;;;;;;;;;;;;15.93;56.46;100702.06;5058352;28;1142;-57
2023/06/15 09:54:48;;;;;;;;;;;;;;;15.95;56.40;100697.16;5058614;28;1173;-56
2023/06/15 09:57:16;;;;;;;;;;;;;;;15.95;56.07;100691.66;5057529;28;1235;-55
2023/06/15 09:59:41;;;;;;;;;;;;;;;15.89;56.40;100698.22;5056862;28;1906;-52
2023/06/15 10:02:11;;;;;;;;;;;;;;;16.60;56.94;100697.44;5058219;28;1103;-53
2023/06/15 10:04:36;;;;;;;;;;;;;;;17.20;57.05;100699.56;5058432;28;1218;-54
2023/06/15 10:07:03;;;;;;;;;;;;;;;16.64;57.69;100699.66;5047380;28;1128;-51
2023/06/15 10:09:35;;;;;;;;;;;;;;;16.47;57.83;100700.75;5056426;28;1202;-54
2023/06/15 10:12:21;;;;;;;;;;;;;;;16.34;57.41;100687.56;5040687;28;918;-58
2023/06/15 10:15:03;;;;;;;;;;;;;;;16.30;57.02;100700.19;5046150;28;1804;-60
2023/06/15 10:17:34;;;;;;;;;;;;;;;16.19;57.15;100693.88;5031202;28;1204;-60
2023/06/15 10:20:07;;;;;;;;;;;;;;;16.16;56.80;100699.91;5058570;28;1901;-60
2023/06/15 10:22:33;;;;;;;;;;;;;;;16.10;57.06;100690.84;5058396;28;1127;-58
2023/06/15 10:24:59;;;;;;;;;;;;;;;16.08;56.57;100688.38;5058028;28;1079;-59
2023/06/15 10:27:25;;;;;;;;;;;;;;;16.06;56.66;100690.59;5058417;28;1083;-61
2023/06/15 10:29:54;;;;;;;;;;;;;;;16.04;56.69;100702.91;5058364;28;1000;-60
2023/06/15 10:32:25;;;;;;;;;;;;;;;16.01;56.47;100698.78;5058025;28;1191;-63
2023/06/15 10:34:51;;;;;;;;;;;;;;;16.00;56.46;100694.38;5057317;28;1024;-60
2023/06/15 10:37:37;;;;;;;;;;;;;;;15.98;56.17;100685.63;5057111;28;1152;-61
2023/06/15 10:40:30;;;;;;;;;;;;;;;15.91;56.25;100683.13;5044710;28;1969;-58
2023/06/15 10:42:55;;;;;;;;;;;;;;;16.08;56.73;100684.81;5042614;28;1383;-63
2023/06/15 10:45:28;;;;;;;;;;;;;;;17.41;58.08;100681.06;5058658;28;1032;-59
2023/06/15 10:47:53;;;;;;;;;;;;;;;16.74;58.81;100689.47;5057559;28;1151;-59
2023/06/15 10:50:19;;;;;;;;;;;;;;;16.53;58.31;100687.84;5057744;28;1226;-60
2023/06/15 10:52:44;;;;;;;;;;;;;;;16.40;58.03;100676.31;5057934;28;1128;-59
2023/06/15 10:55:14;;;;;;;;;;;;;;;16.31;57.53;100675.22;5057970;28;1063;-60
2023/06/15 10:57:40;;;;;;;;;;;;;;;16.30;57.07;100670.00;5057997;28;1155;-60
2023/06/15 11:00:07;;;;;;;;;;;;;;;16.21;56.98;100667.00;5051674;28;1964;-59
2023/06/15 11:02:32;;;;;;;;;;;;;;;16.11;57.21;100665.06;5053121;28;1235;-59
2023/06/15 11:05:08;;;;;;;;;;;;;;;16.12;57.09;100671.38;5046785;28;1013;-59
2023/06/15 11:07:43;;;;;;;;;;;;;;;16.08;56.82;100666.44;5043945;28;1175;-61
2023/06/15 11:10:10;;;;;;;;;;;;;;;16.12;56.59;100663.97;5037270;28;2595;-59
2023/06/15 11:12:36;;;;;;;;;;;;;;;16.05;56.73;100666.16;5051835;28;1108;-57
2023/06/15 11:15:02;;;;;;;;;;;;;;;16.02;56.54;100667.53;5057721;28;1309;-58
2023/06/15 11:17:27;;;;;;;;;;;;;;;15.95;56.55;100658.75;5046999;28;1420;-61
2023/06/15 11:19:53;;;;;;;;;;;;;;;16.00;56.50;100650.50;5048584;28;1955;-59
2023/06/15 11:22:25;;;;;;;;;;;;;;;15.95;56.31;100658.75;5050061;28;1212;-58
2023/06/15 11:24:53;;;;;;;;;;;;;;;16.00;56.21;100669.72;5056788;28;990;-59
2023/06/15 11:27:20;;;;;;;;;;;;;;;15.88;56.39;100658.19;5054875;28;1223;-59
2023/06/15 11:29:46;;;;;;;;;;;;;;;15.85;56.31;100669.69;5053221;28;1052;-57
2023/06/15 11:32:11;;;;;;;;;;;;;;;16.10;56.85;100659.84;5045662;28;1208;-56
2023/06/15 11:34:38;;;;;;;;;;;;;;;17.33;57.59;100662.41;5056971;28;1187;-57
2023/06/15 11:37:03;;;;;;;;;;;;;;;16.84;58.38;100660.34;5051590;28;969;-59
2023/06/15 11:39:29;;;;;;;;;;;;;;;16.50;58.53;100652.72;5055856;28;1902;-58
2023/06/15 11:41:56;;;;;;;;;;;;;;;16.42;57.96;100660.44;5054874;28;1120;-57
2023/06/15 11:44:22;;;;;;;;;;;;;;;16.29;57.71;100660.16;5056470;28;1235;-57
2023/06/15 11:46:54;;;;;;;;;;;;;;;16.26;57.38;100650.53;5056710;28;1017;-56
2023/06/15 11:49:19;;;;;;;;;;;;;;;16.15;57.14;100646.16;5049459;28;988;-58
2023/06/15 11:51:47;;;;;;;;;;;;;;;16.18;56.91;100643.66;5055747;28;1216;-59
2023/06/15 11:54:13;;;;;;;;;;;;;;;16.15;56.68;100648.91;5055961;28;1376;-57
2023/06/15 11:56:48;;;;;;;;;;;;;;;16.10;56.74;100646.16;5056023;28;1274;-54
2023/06/15 11:59:17;;;;;;;;;;;;;;;16.07;56.85;100647.50;5042536;28;1961;-50
2023/06/15 12:01:45;;;;;;;;;;;;;;;16.01;56.50;100654.09;5054547;28;1194;-56
2023/06/15 12:04:12;;;;;;;;;;;;;;;15.96;56.64;100652.16;5052098;28;1455;-58
2023/06/15 12:06:47;;;;;;;;;;;;;;;15.99;56.37;100650.78;5056063;28;1088;-57
2023/06/15 12:09:13;;;;;;;;;;;;;;;15.97;56.52;100642.84;5051943;28;1063;-58
2023/06/15 12:11:39;;;;;;;;;;;;;;;15.95;56.37;100656.00;5053068;28;1073;-58
2023/06/15 12:14:07;;;;;;;;;;;;;;;15.89;56.22;100641.47;5055886;28;1048;-60
2023/06/15 12:16:33;;;;;;;;;;;;;;;15.95;56.39;100650.53;5055495;28;1174;-58
2023/06/15 12:18:59;;;;;;;;;;;;;;;16.75;57.52;100644.44;5056142;28;1910;-57
2023/06/15 12:21:35;;;;;;;;;;;;;;;17.20;57.84;100652.03;5053739;28;1291;-58
2023/06/15 12:24:02;;;;;;;;;;;;;;;16.65;58.40;100647.22;5052072;28;1168;-60
2023/06/15 12:26:33;;;;;;;;;;;;;;;16.49;57.92;100646.41;5046973;28;1143;-61
2023/06/15 12:28:59;;;;;;;;;;;;;;;16.33;57.81;100637.38;5051719;28;1164;-56
2023/06/15 12:31:34;;;;;;;;;;;;;;;16.30;57.15;100640.66;5051766;28;1112;-57
2023/06/15 12:34:05;;;;;;;;;;;;;;;16.22;57.02;100632.97;5042488;28;921;-57
2023/06/15 12:36:30;;;;;;;;;;;;;;;16.15;56.91;100627.75;5053088;28;1047;-54
2023/06/15 12:38:56;;;;;;;;;;;;;;;16.13;56.95;100624.50;5048200;28;1905;-61
2023/06/15 12:41:21;;;;;;;;;;;;;;;16.06;57.02;100623.91;5053958;28;1073;-61
2023/06/15 12:43:48;;;;;;;;;;;;;;;16.10;56.45;100624.19;5047173;28;1215;-58
2023/06/15 12:46:13;;;;;;;;;;;;;;;16.01;56.42;100619.25;5054873;28;1299;-58